Time;durP1;ratioP1;P1;durP2;ratioP2;P2;SDS_P1;SDS_P2;PMS_P1;PMS_P2;Temp;Humidity;BMP_temperature;BMP_pressure;BME280_temperature;BME280_humidity;BME280_pressure;Samples;Min_cycle;Max_cycle;Signal;HPM_P1;HPM_P2
2022/08/16 00:00:29;;;;;;;0.00;0.00;;;23.30;99.90;;;;;;4981214;28;20449;-72
2022/08/16 00:03:08;;;;;;;0.00;0.00;;;23.30;99.90;;;;;;4981742;28;20480;-72
2022/08/16 00:05:42;;;;;;;0.00;0.00;;;23.30;99.90;;;;;;4981351;28;21033;-72
2022/08/16 00:08:15;;;;;;;0.00;0.00;;;23.30;99.90;;;;;;4981643;28;20496;-72
2022/08/16 00:11:03;;;;;;;0.00;0.00;;;23.30;99.90;;;;;;4980774;28;20950;-72
2022/08/16 00:13:32;;;;;;;0.00;0.00;;;23.30;99.90;;;;;;4981354;28;20443;-72
2022/08/16 00:16:09;;;;;;;0.00;0.00;;;23.30;99.90;;;;;;4983245;28;20442;-72
2022/08/16 00:18:59;;;;;;;0.00;0.00;;;23.30;99.90;;;;;;4981347;28;20475;-72
2022/08/16 00:21:30;;;;;;;0.00;0.00;;;23.30;99.90;;;;;;4981172;28;20909;-72
2022/08/16 00:23:58;;;;;;;0.00;0.00;;;23.30;99.90;;;;;;4981364;28;20459;-72
2022/08/16 00:26:32;;;;;;;0.00;0.00;;;23.40;99.90;;;;;;4980828;28;20589;-72
2022/08/16 00:29:11;;;;;;;0.00;0.00;;;23.40;99.90;;;;;;4980580;28;20600;-70
2022/08/16 00:31:44;;;;;;;0.00;0.00;;;23.40;99.90;;;;;;4980897;28;20531;-70
2022/08/16 00:34:30;;;;;;;0.00;0.00;;;23.40;99.90;;;;;;4981012;28;20594;-70
2022/08/16 00:37:17;;;;;;;0.00;0.00;;;23.40;99.90;;;;;;4981195;28;20431;-73
2022/08/16 00:39:48;;;;;;;0.00;0.00;;;23.40;99.90;;;;;;4980860;28;20776;-73
2022/08/16 00:42:27;;;;;;;0.00;0.00;;;23.30;99.90;;;;;;4981196;28;20477;-73
2022/08/16 00:44:59;;;;;;;0.00;0.00;;;23.30;99.90;;;;;;4980743;28;20462;-72
2022/08/16 00:47:34;;;;;;;0.00;0.00;;;23.30;99.90;;;;;;4980938;28;21160;-72
2022/08/16 00:50:06;;;;;;;0.00;0.00;;;23.20;99.90;;;;;;4980888;28;20995;-73
2022/08/16 00:52:39;;;;;;;0.00;0.00;;;23.20;99.90;;;;;;4982090;28;20535;-73
2022/08/16 00:55:19;;;;;;;0.00;0.00;;;23.20;99.90;;;;;;4981706;28;20462;-72
2022/08/16 00:57:51;;;;;;;0.00;0.00;;;23.10;99.90;;;;;;4982944;28;20513;-73
2022/08/16 01:00:29;;;;;;;0.00;0.00;;;23.10;99.90;;;;;;4981974;28;20493;-72
2022/08/16 01:03:01;;;;;;;0.00;0.00;;;23.10;99.90;;;;;;4982098;28;20516;-72
2022/08/16 01:05:32;;;;;;;0.00;0.00;;;23.00;99.90;;;;;;4981603;28;20440;-73
2022/08/16 01:08:01;;;;;;;0.00;0.00;;;23.10;99.90;;;;;;4981193;28;20486;-73
2022/08/16 01:10:49;;;;;;;0.00;0.00;;;23.00;99.90;;;;;;4982355;28;20466;-73
2022/08/16 01:13:21;;;;;;;0.00;0.00;;;23.00;99.90;;;;;;4982321;28;20437;-73
2022/08/16 01:15:59;;;;;;;0.00;0.00;;;23.00;99.90;;;;;;4981955;28;20633;-73
2022/08/16 01:18:33;;;;;;;0.00;0.00;;;23.00;99.90;;;;;;4981502;28;21152;-73
2022/08/16 01:21:22;;;;;;;0.00;0.00;;;23.00;99.90;;;;;;4980836;28;20547;-73
2022/08/16 01:24:12;;;;;;;0.00;0.00;;;23.00;99.90;;;;;;4981016;28;20451;-73
2022/08/16 01:27:02;;;;;;;0.00;0.00;;;23.00;99.90;;;;;;4980589;28;20760;-73
2022/08/16 01:29:37;;;;;;;0.00;0.00;;;23.00;99.90;;;;;;4981133;28;20569;-72
2022/08/16 01:32:27;;;;;;;0.00;0.00;;;23.00;99.90;;;;;;4980963;28;20486;-74
2022/08/16 01:35:03;;;;;;;0.00;0.00;;;22.90;99.90;;;;;;4980486;28;21316;-74
2022/08/16 01:37:39;;;;;;;0.00;0.00;;;22.90;99.90;;;;;;4980207;28;20439;-74
2022/08/16 01:40:12;;;;;;;0.00;0.00;;;22.80;99.90;;;;;;4980487;28;20440;-74
2022/08/16 01:42:43;;;;;;;0.00;0.00;;;22.80;99.90;;;;;;4980746;28;20444;-74
2022/08/16 01:45:15;;;;;;;0.00;0.00;;;22.80;99.90;;;;;;4981728;28;20476;-73
2022/08/16 01:50:50;;;;;;;0.00;0.00;;;22.70;99.90;;;;;;5017664;28;20611;-72
2022/08/16 01:53:39;;;;;;;0.00;0.00;;;22.70;99.90;;;;;;5013895;27;20447;-72
2022/08/16 01:56:08;;;;;;;0.00;0.00;;;22.60;99.90;;;;;;5014025;27;20481;-72
2022/08/16 01:58:53;;;;;;;0.00;0.00;;;22.60;99.90;;;;;;5014147;28;20458;-72
2022/08/16 02:01:22;;;;;;;0.00;0.00;;;22.60;99.90;;;;;;5013361;28;20451;-73
2022/08/16 02:03:53;;;;;;;0.00;0.00;;;22.50;99.90;;;;;;5013664;28;20917;-73
2022/08/16 02:06:27;;;;;;;0.00;0.00;;;22.50;99.90;;;;;;5013952;28;20443;-73
2022/08/16 02:09:07;;;;;;;0.00;0.00;;;22.40;99.90;;;;;;5014180;28;20642;-73
2022/08/16 02:11:41;;;;;;;0.00;0.00;;;22.40;99.90;;;;;;5014081;28;20963;-73
2022/08/16 02:14:14;;;;;;;0.00;0.00;;;22.30;99.90;;;;;;5021834;27;20453;-73
2022/08/16 02:22:27;;;;;;;0.00;0.00;;;22.10;99.90;;;;;;4947750;28;20559;-94
2022/08/16 02:25:13;;;;;;;0.00;0.00;;;22.00;99.90;;;;;;4937226;28;20449;-93
2022/08/16 02:27:44;;;;;;;0.00;0.00;;;22.00;99.90;;;;;;4967283;22;20567;-73
2022/08/16 02:30:21;;;;;;;0.00;0.00;;;21.90;99.90;;;;;;4953131;28;21002;-73
2022/08/16 02:33:10;;;;;;;0.00;0.00;;;21.80;99.90;;;;;;4953653;28;21021;-73
2022/08/16 02:35:38;;;;;;;0.00;0.00;;;21.80;99.90;;;;;;4954614;28;21010;-73
2022/08/16 02:38:22;;;;;;;0.00;0.00;;;21.70;99.90;;;;;;4953410;28;21029;-73
2022/08/16 02:40:50;;;;;;;0.00;0.00;;;21.70;99.90;;;;;;4953436;28;20441;-73
2022/08/16 02:43:21;;;;;;;0.00;0.00;;;21.70;99.90;;;;;;4953331;28;20678;-76
2022/08/16 02:45:54;;;;;;;0.00;0.00;;;21.60;99.90;;;;;;4953839;28;21009;-77
2022/08/16 02:48:23;;;;;;;0.00;0.00;;;21.70;99.90;;;;;;4953620;28;20546;-76
2022/08/16 02:50:58;;;;;;;0.00;0.00;;;21.60;99.90;;;;;;4954657;28;20492;-74
2022/08/16 02:53:43;;;;;;;0.00;0.00;;;21.60;99.90;;;;;;4954299;28;20456;-75
2022/08/16 02:56:12;;;;;;;0.00;0.00;;;21.60;99.90;;;;;;4955649;28;21027;-76
2022/08/16 02:58:42;;;;;;;0.00;0.00;;;21.60;99.90;;;;;;4955258;28;20855;-76
2022/08/16 03:01:11;;;;;;;0.00;0.00;;;21.60;99.90;;;;;;4946964;28;20559;-76
2022/08/16 03:03:53;;;;;;;0.00;0.00;;;21.50;99.90;;;;;;4941597;28;21209;-72
2022/08/16 03:06:43;;;;;;;0.00;0.00;;;21.50;99.90;;;;;;4941690;28;20453;-78
2022/08/16 03:09:12;;;;;;;0.00;0.00;;;21.50;99.90;;;;;;4942698;28;20564;-76
2022/08/16 03:11:43;;;;;;;0.00;0.00;;;21.50;99.90;;;;;;4940679;28;21116;-73
2022/08/16 03:14:12;;;;;;;0.00;0.00;;;21.50;99.90;;;;;;4943530;29;20548;-77
2022/08/16 03:16:47;;;;;;;0.00;0.00;;;21.40;99.90;;;;;;4941437;29;20498;-76
2022/08/16 03:19:28;;;;;;;0.00;0.00;;;21.30;99.90;;;;;;4940533;28;20473;-76
2022/08/16 03:22:16;;;;;;;0.00;0.00;;;21.30;99.90;;;;;;4940385;28;20851;-74
2022/08/16 03:24:47;;;;;;;0.00;0.00;;;21.30;99.90;;;;;;4940583;29;20758;-75
2022/08/16 03:27:15;;;;;;;0.00;0.00;;;21.30;99.90;;;;;;4940385;29;20466;-74
2022/08/16 03:29:46;;;;;;;0.00;0.00;;;21.30;99.90;;;;;;4939647;28;20492;-72
2022/08/16 03:32:21;;;;;;;0.00;0.00;;;21.20;99.90;;;;;;4940001;28;20504;-74
2022/08/16 03:34:52;;;;;;;0.00;0.00;;;21.20;99.90;;;;;;4940239;29;20729;-75
2022/08/16 03:37:20;;;;;;;0.00;0.00;;;21.20;99.90;;;;;;4940574;28;20820;-74
2022/08/16 03:39:50;;;;;;;0.00;0.00;;;21.20;99.90;;;;;;4941198;28;20744;-78
2022/08/16 03:42:23;;;;;;;0.00;0.00;;;21.20;99.90;;;;;;4940832;29;20536;-81
2022/08/16 03:44:53;;;;;;;0.00;0.00;;;21.10;99.90;;;;;;4939569;28;20987;-75
2022/08/16 03:47:32;;;;;;;0.00;0.00;;;21.00;99.90;;;;;;4939571;28;20532;-75
2022/08/16 03:50:01;;;;;;;0.00;0.00;;;21.00;99.90;;;;;;4939076;28;20481;-75
2022/08/16 03:52:30;;;;;;;0.00;0.00;;;21.00;99.90;;;;;;4939492;28;20840;-75
2022/08/16 03:55:00;;;;;;;0.00;0.00;;;21.00;99.90;;;;;;4940844;28;20445;-77
2022/08/16 03:57:29;;;;;;;0.00;0.00;;;21.10;99.90;;;;;;4941109;28;20441;-74
2022/08/16 04:00:11;;;;;;;0.00;0.00;;;21.10;99.90;;;;;;4939147;28;20437;-74
2022/08/16 04:03:05;;;;;;;0.00;0.00;;;21.00;99.90;;;;;;4939164;28;20617;-74
2022/08/16 04:05:35;;;;;;;0.00;0.00;;;21.00;99.90;;;;;;4939157;28;20510;-74
2022/08/16 04:08:05;;;;;;;0.00;0.00;;;21.00;99.90;;;;;;4939388;28;20976;-74
2022/08/16 04:10:54;;;;;;;0.00;0.00;;;21.10;99.90;;;;;;4938952;29;21050;-74
2022/08/16 04:13:24;;;;;;;0.00;0.00;;;21.20;99.90;;;;;;4938158;28;20526;-74
2022/08/16 04:16:14;;;;;;;0.00;0.00;;;21.20;99.90;;;;;;4939802;28;20736;-75
2022/08/16 04:18:55;;;;;;;0.00;0.00;;;21.20;99.90;;;;;;4940017;28;20469;-75
2022/08/16 04:21:31;;;;;;;0.00;0.00;;;21.30;99.90;;;;;;4940341;29;20444;-75
2022/08/16 04:24:00;;;;;;;0.00;0.00;;;21.30;99.90;;;;;;4939060;28;20460;-75
2022/08/16 04:26:29;;;;;;;0.00;0.00;;;21.30;99.90;;;;;;4938580;28;20959;-74
2022/08/16 04:28:59;;;;;;;0.00;0.00;;;21.40;99.90;;;;;;4938609;28;20496;-75
2022/08/16 04:31:48;;;;;;;0.00;0.00;;;21.50;99.90;;;;;;4938545;28;20477;-75
2022/08/16 04:34:26;;;;;;;0.00;0.00;;;21.50;99.90;;;;;;4938614;28;20839;-76
2022/08/16 04:36:54;;;;;;;0.00;0.00;;;21.60;99.90;;;;;;4938717;28;20857;-75
2022/08/16 04:39:24;;;;;;;0.00;0.00;;;21.60;99.90;;;;;;4938893;28;20461;-75
2022/08/16 04:42:14;;;;;;;0.00;0.00;;;21.60;99.90;;;;;;4938536;28;20456;-75
2022/08/16 04:44:42;;;;;;;0.00;0.00;;;21.60;99.90;;;;;;4938583;29;20733;-76
2022/08/16 04:47:23;;;;;;;0.00;0.00;;;21.70;99.90;;;;;;4938870;28;20409;-75
2022/08/16 04:49:52;;;;;;;0.00;0.00;;;21.70;99.90;;;;;;4938569;28;20445;-75
2022/08/16 04:52:20;;;;;;;0.00;0.00;;;21.70;99.90;;;;;;4938581;29;20450;-75
2022/08/16 04:55:06;;;;;;;0.00;0.00;;;21.80;99.90;;;;;;4942046;29;20838;-77
2022/08/16 04:57:36;;;;;;;0.00;0.00;;;21.70;99.90;;;;;;4941577;28;20944;-75
2022/08/16 05:00:10;;;;;;;0.00;0.00;;;21.70;99.90;;;;;;4938642;29;20708;-75
2022/08/16 05:02:59;;;;;;;0.00;0.00;;;21.80;99.90;;;;;;4938121;28;20461;-75
2022/08/16 05:05:35;;;;;;;0.00;0.00;;;21.90;99.90;;;;;;4938448;29;20463;-74
2022/08/16 05:08:12;;;;;;;0.00;0.00;;;22.00;99.90;;;;;;4938367;28;20729;-74
2022/08/16 05:10:58;;;;;;;0.00;0.00;;;22.00;99.90;;;;;;4937973;28;20484;-74
2022/08/16 05:13:28;;;;;;;0.00;0.00;;;22.00;99.90;;;;;;4938218;29;20454;-74
2022/08/16 05:16:09;;;;;;;0.00;0.00;;;22.00;99.90;;;;;;4938772;28;20445;-74
2022/08/16 05:18:46;;;;;;;0.00;0.00;;;22.00;99.90;;;;;;4938459;28;21103;-74
2022/08/16 05:21:14;;;;;;;0.00;0.00;;;22.10;99.90;;;;;;4937742;28;20523;-74
2022/08/16 05:23:42;;;;;;;0.00;0.00;;;22.10;99.90;;;;;;4938853;29;20540;-73
2022/08/16 05:26:19;;;;;;;0.00;0.00;;;22.10;99.90;;;;;;4938628;28;20464;-75
2022/08/16 05:28:48;;;;;;;0.00;0.00;;;22.20;99.90;;;;;;4941903;28;20467;-75
2022/08/16 05:31:22;;;;;;;0.00;0.00;;;22.20;99.90;;;;;;4939263;29;20479;-75
2022/08/16 05:33:58;;;;;;;0.00;0.00;;;22.20;99.90;;;;;;4938775;28;20526;-74
2022/08/16 05:36:25;;;;;;;0.00;0.00;;;22.30;99.90;;;;;;4938813;29;20446;-76
2022/08/16 05:39:05;;;;;;;0.00;0.00;;;22.30;99.90;;;;;;4938872;28;20485;-74
2022/08/16 05:41:35;;;;;;;0.00;0.00;;;22.40;99.90;;;;;;4938994;29;20449;-77
2022/08/16 05:44:14;;;;;;;0.00;0.00;;;22.30;99.90;;;;;;4938366;28;20451;-71
2022/08/16 05:46:54;;;;;;;0.00;0.00;;;22.40;99.90;;;;;;4938336;28;20486;-71
2022/08/16 05:49:23;;;;;;;0.00;0.00;;;22.50;99.90;;;;;;4938076;28;20506;-71
2022/08/16 05:51:53;;;;;;;0.00;0.00;;;22.50;99.90;;;;;;4938197;29;20517;-72
2022/08/16 05:54:23;;;;;;;0.00;0.00;;;22.50;99.90;;;;;;4938456;28;20804;-72
2022/08/16 05:56:53;;;;;;;0.00;0.00;;;22.60;99.90;;;;;;4938589;28;20454;-73
2022/08/16 05:59:24;;;;;;;0.00;0.00;;;22.50;99.90;;;;;;4938152;28;20564;-73
2022/08/16 06:01:54;;;;;;;0.00;0.00;;;22.50;99.90;;;;;;4938154;29;20475;-73
2022/08/16 06:04:24;;;;;;;0.00;0.00;;;22.50;99.90;;;;;;4997406;23;20817;-91
2022/08/16 06:07:05;;;;;;;0.00;0.00;;;22.60;99.90;;;;;;4961556;28;20482;-91
2022/08/16 06:09:52;;;;;;;0.00;0.00;;;22.70;99.90;;;;;;4952678;28;20429;-87
2022/08/16 06:12:19;;;;;;;0.00;0.00;;;22.60;99.90;;;;;;4953047;28;20966;-90
2022/08/16 06:14:58;;;;;;;0.00;0.00;;;22.70;99.90;;;;;;4949921;28;20447;-90
2022/08/16 06:17:32;;;;;;;0.00;0.00;;;22.70;99.90;;;;;;4951356;28;20456;-95
2022/08/16 06:23:00;;;;;;;0.00;0.00;;;22.90;99.90;;;;;;4977492;28;20474;-75
2022/08/16 06:25:43;;;;;;;0.00;0.00;;;22.90;99.90;;;;;;4967434;28;20467;-75
2022/08/16 06:28:20;;;;;;;0.00;0.00;;;23.00;99.90;;;;;;4966590;28;20473;-74
2022/08/16 06:31:05;;;;;;;0.00;0.00;;;23.10;99.90;;;;;;4972045;28;20578;-75
2022/08/16 06:33:39;;;;;;;0.00;0.00;;;23.10;99.90;;;;;;4974790;28;20794;-75
2022/08/16 06:36:10;;;;;;;0.00;0.00;;;23.10;99.90;;;;;;4971156;28;20463;-76
2022/08/16 06:38:41;;;;;;;0.00;0.00;;;23.10;99.90;;;;;;4976373;28;21023;-75
2022/08/16 06:41:23;;;;;;;0.00;0.00;;;23.10;99.90;;;;;;4970368;28;20467;-75
2022/08/16 06:43:55;;;;;;;0.00;0.00;;;23.10;99.90;;;;;;4983407;28;20444;-76
2022/08/16 06:46:41;;;;;;;0.00;0.00;;;23.20;99.90;;;;;;4971138;28;20817;-74
2022/08/16 06:49:19;;;;;;;0.00;0.00;;;23.20;99.90;;;;;;4975370;28;20837;-74
2022/08/16 06:51:46;;;;;;;0.00;0.00;;;23.30;99.90;;;;;;4978158;28;20491;-73
2022/08/16 06:54:17;;;;;;;0.00;0.00;;;23.40;99.90;;;;;;4980619;28;20442;-74
2022/08/16 06:56:45;;;;;;;0.00;0.00;;;23.30;99.90;;;;;;4958982;28;20436;-73
2022/08/16 06:59:19;;;;;;;0.00;0.00;;;23.40;99.90;;;;;;4960240;28;20471;-72
2022/08/16 07:01:54;;;;;;;0.00;0.00;;;23.50;99.90;;;;;;4959621;28;20964;-73
2022/08/16 07:04:25;;;;;;;0.00;0.00;;;23.50;99.90;;;;;;4970780;28;20455;-73
2022/08/16 07:07:00;;;;;;;0.00;0.00;;;23.60;99.90;;;;;;4970822;28;20527;-73
2022/08/16 07:09:30;;;;;;;0.00;0.00;;;23.50;99.90;;;;;;4973084;28;20473;-73
2022/08/16 07:11:59;;;;;;;0.00;0.00;;;23.60;99.90;;;;;;4968406;28;20470;-74
2022/08/16 07:14:33;;;;;;;0.00;0.00;;;23.50;99.90;;;;;;4965235;28;21222;-75
2022/08/16 07:17:04;;;;;;;0.00;0.00;;;23.60;99.90;;;;;;4978849;28;21015;-73
2022/08/16 07:19:39;;;;;;;0.00;0.00;;;23.70;99.90;;;;;;4970969;28;21043;-74
2022/08/16 07:22:27;;;;;;;0.00;0.00;;;23.80;99.90;;;;;;4977305;28;21007;-77
2022/08/16 07:25:07;;;;;;;0.00;0.00;;;23.80;99.90;;;;;;4972302;28;20459;-76
2022/08/16 07:27:36;;;;;;;0.00;0.00;;;23.90;99.90;;;;;;4964725;28;20461;-73
2022/08/16 07:30:10;;;;;;;0.00;0.00;;;23.90;99.90;;;;;;4960648;28;20448;-75
2022/08/16 07:33:01;;;;;;;0.00;0.00;;;24.10;99.90;;;;;;4959609;28;20477;-71
2022/08/16 07:35:29;;;;;;;0.00;0.00;;;24.10;99.90;;;;;;4960048;28;20465;-74
2022/08/16 07:37:58;;;;;;;0.00;0.00;;;24.30;99.90;;;;;;4959377;28;20493;-73
2022/08/16 07:40:26;;;;;;;0.00;0.00;;;24.40;99.90;;;;;;4959184;28;20446;-72
2022/08/16 07:43:14;;;;;;;0.00;0.00;;;24.50;99.90;;;;;;4959102;28;20827;-73
2022/08/16 07:45:42;;;;;;;0.00;0.00;;;24.60;99.90;;;;;;4959152;28;20536;-72
2022/08/16 07:48:19;;;;;;;0.00;0.00;;;24.70;99.90;;;;;;4959712;28;20461;-73
2022/08/16 07:50:48;;;;;;;0.00;0.00;;;24.90;99.90;;;;;;4958772;28;20682;-73
2022/08/16 07:53:25;;;;;;;0.00;0.00;;;25.10;99.90;;;;;;4959775;28;20492;-74
2022/08/16 07:55:56;;;;;;;0.00;0.00;;;25.20;99.90;;;;;;4968467;28;20450;-73
2022/08/16 07:58:24;;;;;;;0.00;0.00;;;25.40;99.90;;;;;;4964204;28;20471;-73
2022/08/16 08:01:04;;;;;;;0.00;0.00;;;25.50;99.90;;;;;;4959257;28;20449;-72
2022/08/16 08:03:40;;;;;;;0.00;0.00;;;25.70;99.90;;;;;;4958857;28;20454;-72
2022/08/16 08:06:16;;;;;;;0.00;0.00;;;25.90;99.90;;;;;;4958482;28;20652;-74
2022/08/16 08:08:45;;;;;;;0.00;0.00;;;26.10;99.90;;;;;;4959452;28;20573;-72
2022/08/16 08:11:18;;;;;;;0.00;0.00;;;26.20;99.90;;;;;;4959710;28;20455;-73
2022/08/16 08:13:48;;;;;;;0.00;0.00;;;26.30;99.90;;;;;;4960020;28;20486;-71
2022/08/16 08:16:18;;;;;;;0.00;0.00;;;26.40;99.90;;;;;;4960072;28;20459;-72
2022/08/16 08:18:49;;;;;;;0.00;0.00;;;26.60;99.90;;;;;;4959139;28;20456;-72
2022/08/16 08:21:28;;;;;;;0.00;0.00;;;26.70;99.90;;;;;;4958385;28;20831;-73
2022/08/16 08:24:16;;;;;;;0.00;0.00;;;26.80;99.90;;;;;;4958353;28;20443;-73
2022/08/16 08:26:44;;;;;;;0.00;0.00;;;26.80;99.90;;;;;;4958658;28;20772;-72
2022/08/16 08:29:17;;;;;;;0.00;0.00;;;26.80;99.90;;;;;;4958233;28;20469;-72
2022/08/16 08:31:51;;;;;;;0.00;0.00;;;26.90;99.90;;;;;;4958071;28;20444;-72
2022/08/16 08:34:22;;;;;;;0.00;0.00;;;26.90;99.90;;;;;;4957987;28;20441;-71
2022/08/16 08:36:51;;;;;;;0.00;0.00;;;26.90;99.90;;;;;;4957957;28;20463;-71
2022/08/16 08:39:22;;;;;;;0.00;0.00;;;26.80;99.90;;;;;;4963369;28;20484;-70
2022/08/16 08:41:51;;;;;;;0.00;0.00;;;26.80;99.90;;;;;;4965271;28;20496;-71
2022/08/16 08:44:20;;;;;;;0.00;0.00;;;26.80;99.90;;;;;;4976784;28;20447;-70
2022/08/16 08:46:58;;;;;;;0.00;0.00;;;26.70;99.90;;;;;;4957624;28;20960;-71
2022/08/16 08:49:29;;;;;;;0.00;0.00;;;26.60;99.90;;;;;;4957584;28;20540;-71
2022/08/16 08:52:18;;;;;;;0.00;0.00;;;26.50;99.90;;;;;;4957494;28;20442;-68
2022/08/16 08:55:04;;;;;;;0.00;0.00;;;26.50;99.90;;;;;;4966181;28;20537;-70
2022/08/16 08:57:39;;;;;;;0.00;0.00;;;26.50;99.90;;;;;;4976864;28;20452;-71
2022/08/16 09:00:09;;;;;;;0.00;0.00;;;26.50;99.90;;;;;;4975854;28;20926;-71
2022/08/16 09:02:41;;;;;;;0.00;0.00;;;26.60;99.90;;;;;;4976485;28;20445;-71
2022/08/16 09:05:12;;;;;;;0.00;0.00;;;26.50;99.90;;;;;;4970858;28;20470;-71
2022/08/16 09:07:42;;;;;;;0.00;0.00;;;26.60;99.90;;;;;;4965973;28;20459;-71
2022/08/16 09:10:28;;;;;;;0.00;0.00;;;26.60;99.90;;;;;;4968054;28;20466;-70
2022/08/16 09:12:56;;;;;;;0.00;0.00;;;26.60;99.90;;;;;;4962968;28;20505;-71
2022/08/16 09:15:26;;;;;;;0.00;0.00;;;26.80;99.90;;;;;;4970329;28;21163;-70
2022/08/16 09:18:00;;;;;;;0.00;0.00;;;26.80;99.90;;;;;;4966826;28;21244;-71
2022/08/16 09:20:51;;;;;;;0.00;0.00;;;26.70;99.90;;;;;;4969051;28;20443;-70
2022/08/16 09:23:27;;;;;;;0.00;0.00;;;26.70;99.90;;;;;;4976408;28;20445;-72
2022/08/16 09:25:55;;;;;;;0.00;0.00;;;26.70;99.90;;;;;;4976588;28;20445;-71
2022/08/16 09:28:24;;;;;;;0.00;0.00;;;26.70;99.90;;;;;;4976197;28;20995;-71
2022/08/16 09:31:13;;;;;;;0.00;0.00;;;26.70;99.90;;;;;;4975776;28;20455;-71
2022/08/16 09:33:42;;;;;;;0.00;0.00;;;26.70;99.90;;;;;;4976110;28;21155;-70
2022/08/16 09:36:11;;;;;;;0.00;0.00;;;26.70;99.90;;;;;;4975794;28;20529;-70
2022/08/16 09:39:00;;;;;;;0.00;0.00;;;26.70;99.90;;;;;;4968745;28;20475;-71
2022/08/16 09:41:30;;;;;;;0.00;0.00;;;26.70;99.90;;;;;;4963888;28;20457;-71
2022/08/16 09:43:58;;;;;;;0.00;0.00;;;26.70;99.90;;;;;;4962841;28;20448;-71
2022/08/16 09:46:46;;;;;;;0.00;0.00;;;26.70;99.90;;;;;;4967657;28;20447;-71
2022/08/16 09:49:17;;;;;;;0.00;0.00;;;26.80;99.90;;;;;;4962632;28;21105;-70
2022/08/16 09:51:53;;;;;;;0.00;0.00;;;26.90;99.90;;;;;;4966064;28;20482;-71
2022/08/16 09:54:23;;;;;;;0.00;0.00;;;26.90;99.90;;;;;;4962688;28;20514;-74
2022/08/16 09:56:59;;;;;;;0.00;0.00;;;27.00;99.90;;;;;;4957077;28;21049;-73
2022/08/16 09:59:28;;;;;;;0.00;0.00;;;27.10;99.90;;;;;;4968093;28;20600;-74
2022/08/16 10:01:57;;;;;;;0.00;0.00;;;27.10;99.90;;;;;;4968721;28;20447;-73
2022/08/16 10:04:25;;;;;;;0.00;0.00;;;27.10;99.90;;;;;;4967123;28;20444;-70
2022/08/16 10:07:04;;;;;;;0.00;0.00;;;27.10;99.90;;;;;;4964758;28;20455;-69
2022/08/16 10:09:43;;;;;;;0.00;0.00;;;27.20;99.90;;;;;;4965989;28;20472;-69
2022/08/16 10:15:11;;;;;;;0.00;0.00;;;27.20;99.90;;;;;;4968801;28;20461;-69
2022/08/16 10:17:44;;;;;;;0.00;0.00;;;27.40;99.90;;;;;;4970289;28;20457;-69
2022/08/16 10:20:32;;;;;;;0.00;0.00;;;27.40;99.90;;;;;;4971992;28;20466;-69
2022/08/16 10:23:08;;;;;;;0.00;0.00;;;27.50;99.90;;;;;;4970118;28;21243;-69
2022/08/16 10:25:46;;;;;;;0.00;0.00;;;27.60;99.90;;;;;;4973400;28;20491;-69
2022/08/16 10:28:34;;;;;;;0.00;0.00;;;27.60;99.90;;;;;;4965955;28;20472;-69
2022/08/16 10:31:09;;;;;;;0.00;0.00;;;27.70;99.90;;;;;;4970619;28;20649;-69
2022/08/16 10:33:42;;;;;;;0.00;0.00;;;27.70;99.90;;;;;;4971598;28;20545;-69
2022/08/16 10:36:12;;;;;;;0.00;0.00;;;27.80;99.90;;;;;;4972461;28;20996;-69
2022/08/16 10:39:02;;;;;;;0.00;0.00;;;28.00;99.90;;;;;;4972648;28;20481;-71
2022/08/16 10:41:31;;;;;;;0.00;0.00;;;28.00;99.90;;;;;;4965586;28;20465;-69
2022/08/16 10:44:00;;;;;;;0.00;0.00;;;28.00;99.90;;;;;;4970996;28;20459;-69
2022/08/16 10:46:29;;;;;;;0.00;0.00;;;28.00;99.90;;;;;;4976912;28;20526;-69
2022/08/16 10:49:09;;;;;;;0.00;0.00;;;28.20;99.90;;;;;;4974915;28;20488;-69
2022/08/16 10:51:38;;;;;;;0.00;0.00;;;28.30;99.90;;;;;;4960221;28;20457;-69
2022/08/16 10:54:27;;;;;;;0.00;0.00;;;28.50;99.90;;;;;;4962702;28;20587;-69
2022/08/16 10:56:58;;;;;;;0.00;0.00;;;28.60;99.90;;;;;;4976239;28;20618;-69
2022/08/16 10:59:28;;;;;;;0.00;0.00;;;28.80;99.90;;;;;;4971170;28;20478;-68
2022/08/16 11:02:16;;;;;;;0.00;0.00;;;29.00;99.90;;;;;;4969325;28;20454;-68
2022/08/16 11:05:11;;;;;;;0.00;0.00;;;29.10;99.90;;;;;;4964847;28;20442;-69
2022/08/16 11:07:43;;;;;;;0.00;0.00;;;29.30;99.90;;;;;;4967605;28;21069;-68
2022/08/16 11:10:23;;;;;;;0.00;0.00;;;29.30;99.90;;;;;;4964571;28;21101;-69
2022/08/16 11:13:14;;;;;;;0.00;0.00;;;29.40;99.90;;;;;;4973289;28;20465;-69
2022/08/16 11:16:03;;;;;;;0.00;0.00;;;29.50;99.90;;;;;;4970414;28;20431;-73
2022/08/16 11:18:51;;;;;;;0.00;0.00;;;29.50;99.90;;;;;;4972165;28;21176;-73
2022/08/16 11:21:39;;;;;;;0.00;0.00;;;29.40;99.90;;;;;;4968195;28;20436;-74
2022/08/16 11:24:27;;;;;;;0.00;0.00;;;29.50;99.90;;;;;;4971612;28;20458;-71
2022/08/16 11:27:12;;;;;;;0.00;0.00;;;29.40;99.90;;;;;;4969222;28;20431;-72
2022/08/16 11:29:52;;;;;;;0.00;0.00;;;29.40;99.90;;;;;;4966046;28;20455;-71
2022/08/16 11:32:23;;;;;;;0.00;0.00;;;29.20;99.90;;;;;;4969458;28;20473;-71
2022/08/16 11:35:01;;;;;;;0.00;0.00;;;29.00;99.90;;;;;;4969356;28;20510;-71
2022/08/16 11:37:43;;;;;;;0.00;0.00;;;28.70;99.90;;;;;;4969158;28;20435;-74
2022/08/16 11:40:37;;;;;;;0.00;0.00;;;28.70;99.90;;;;;;4966218;28;20448;-72
2022/08/16 11:43:06;;;;;;;0.00;0.00;;;28.60;99.90;;;;;;4968572;28;20455;-71
2022/08/16 11:45:37;;;;;;;0.00;0.00;;;28.60;99.90;;;;;;4969076;28;20441;-71
2022/08/16 11:48:06;;;;;;;0.00;0.00;;;28.60;99.90;;;;;;4972851;28;20470;-71
2022/08/16 11:50:35;;;;;;;0.00;0.00;;;28.60;99.90;;;;;;4964834;28;20561;-71
2022/08/16 11:53:04;;;;;;;0.00;0.00;;;28.60;99.90;;;;;;4963594;28;20465;-71
2022/08/16 11:55:36;;;;;;;0.00;0.00;;;28.50;99.90;;;;;;4965800;28;20497;-71
2022/08/16 11:58:07;;;;;;;0.00;0.00;;;28.50;99.90;;;;;;4972258;28;20927;-71
2022/08/16 12:00:40;;;;;;;0.00;0.00;;;28.50;99.90;;;;;;4968753;28;20484;-73
2022/08/16 12:03:19;;;;;;;0.00;0.00;;;28.60;99.90;;;;;;4966883;28;20493;-71
2022/08/16 12:06:08;;;;;;;0.00;0.00;;;28.60;99.90;;;;;;4967341;28;20447;-71
2022/08/16 12:08:56;;;;;;;0.00;0.00;;;28.80;99.90;;;;;;4968019;28;20470;-69
2022/08/16 12:11:27;;;;;;;0.00;0.00;;;28.70;99.90;;;;;;4967302;28;20558;-71
2022/08/16 12:14:00;;;;;;;0.00;0.00;;;28.70;99.90;;;;;;4972453;28;20442;-69
2022/08/16 12:16:32;;;;;;;0.00;0.00;;;28.60;99.90;;;;;;4966493;28;20961;-70
2022/08/16 12:19:01;;;;;;;0.00;0.00;;;28.60;99.90;;;;;;4968488;28;20457;-70
2022/08/16 12:21:31;;;;;;;0.00;0.00;;;28.70;99.90;;;;;;4966836;28;20470;-69
2022/08/16 12:24:19;;;;;;;0.00;0.00;;;28.70;99.90;;;;;;4966027;28;20437;-70
2022/08/16 12:26:48;;;;;;;0.00;0.00;;;28.60;99.90;;;;;;4983254;28;20597;-70
2022/08/16 12:29:18;;;;;;;0.00;0.00;;;28.70;99.90;;;;;;4990039;28;20485;-73
2022/08/16 12:31:47;;;;;;;0.00;0.00;;;28.70;99.90;;;;;;4977540;28;20439;-73
2022/08/16 12:34:35;;;;;;;0.00;0.00;;;28.80;99.90;;;;;;4976478;28;20482;-72
2022/08/16 12:37:04;;;;;;;0.00;0.00;;;28.80;99.90;;;;;;4975732;28;20462;-71
2022/08/16 12:39:38;;;;;;;0.00;0.00;;;28.70;99.90;;;;;;4956878;28;20478;-69
2022/08/16 12:42:18;;;;;;;0.00;0.00;;;28.60;99.90;;;;;;4963652;28;20454;-68
2022/08/16 12:44:48;;;;;;;0.00;0.00;;;28.60;99.90;;;;;;4971049;28;20452;-69
2022/08/16 12:50:06;;;;;;;0.00;0.00;;;28.80;99.90;;;;;;4967534;28;20447;-69
2022/08/16 12:52:42;;;;;;;0.00;0.00;;;28.90;99.90;;;;;;4976316;28;20533;-70
2022/08/16 12:55:24;;;;;;;0.00;0.00;;;29.10;99.90;;;;;;4976897;28;20486;-68
2022/08/16 12:58:00;;;;;;;0.00;0.00;;;29.40;99.90;;;;;;4976972;28;20539;-68
2022/08/16 13:00:31;;;;;;;0.00;0.00;;;29.60;99.90;;;;;;4976010;28;20526;-68
2022/08/16 13:03:02;;;;;;;0.00;0.00;;;29.70;99.90;;;;;;4972205;28;20438;-70
2022/08/16 13:05:39;;;;;;;0.00;0.00;;;29.90;99.90;;;;;;4976533;28;20443;-67
2022/08/16 13:08:20;;;;;;;0.00;0.00;;;30.00;99.90;;;;;;4976004;28;20588;-69
2022/08/16 13:10:49;;;;;;;0.00;0.00;;;30.00;99.90;;;;;;4975430;28;20450;-68
2022/08/16 13:13:23;;;;;;;0.00;0.00;;;30.00;99.90;;;;;;4977308;28;21014;-70
2022/08/16 13:15:56;;;;;;;0.00;0.00;;;30.00;99.90;;;;;;4976393;28;21110;-69
2022/08/16 13:18:33;;;;;;;0.00;0.00;;;29.90;99.90;;;;;;4977193;28;20646;-69
2022/08/16 13:21:04;;;;;;;0.00;0.00;;;29.80;99.90;;;;;;4975258;28;21014;-69
2022/08/16 13:23:33;;;;;;;0.00;0.00;;;29.70;99.90;;;;;;4977545;28;21122;-68
2022/08/16 13:26:03;;;;;;;0.00;0.00;;;29.70;99.90;;;;;;4977707;28;20446;-68
2022/08/16 13:28:31;;;;;;;0.00;0.00;;;29.60;99.90;;;;;;4978095;28;20467;-69
2022/08/16 13:31:00;;;;;;;0.00;0.00;;;29.50;99.90;;;;;;4977784;28;20599;-69
2022/08/16 13:33:35;;;;;;;0.00;0.00;;;29.30;99.90;;;;;;4976891;28;20462;-69
2022/08/16 13:36:06;;;;;;;0.00;0.00;;;29.10;99.90;;;;;;4975940;28;20587;-69
2022/08/16 13:38:47;;;;;;;0.00;0.00;;;29.00;99.90;;;;;;4975685;28;20683;-69
2022/08/16 13:41:18;;;;;;;0.00;0.00;;;28.90;99.90;;;;;;4976146;28;20998;-68
2022/08/16 13:43:46;;;;;;;0.00;0.00;;;29.00;99.90;;;;;;4976038;28;20675;-69
2022/08/16 13:46:28;;;;;;;0.00;0.00;;;29.00;99.90;;;;;;4976682;28;20960;-70